sensor_id;sensor_type;location;lat;lon;timestamp;P1;durP1;ratioP1;P2;durP2;ratioP2
67965;SDS011;54749;47.850;9.002;2022-08-05T05:31:19;8.90;;;3.80;;
67965;SDS011;54749;47.850;9.002;2022-08-05T05:33:46;7.30;;;3.85;;
67965;SDS011;54749;47.850;9.002;2022-08-05T05:36:27;13.02;;;3.22;;
67965;SDS011;54749;47.850;9.002;2022-08-05T05:38:55;8.15;;;3.15;;
67965;SDS011;54749;47.850;9.002;2022-08-05T05:41:23;7.75;;;2.92;;
67965;SDS011;54749;47.850;9.002;2022-08-05T05:43:50;7.83;;;2.83;;
67965;SDS011;54749;47.850;9.002;2022-08-05T05:46:26;8.52;;;3.00;;
67965;SDS011;54749;47.850;9.002;2022-08-05T05:48:52;5.70;;;2.70;;
67965;SDS011;54749;47.850;9.002;2022-08-05T05:51:23;28.70;;;25.75;;
67965;SDS011;54749;47.850;9.002;2022-08-05T05:53:51;10.10;;;7.93;;
67965;SDS011;54749;47.850;9.002;2022-08-05T05:56:26;8.93;;;5.73;;
67965;SDS011;54749;47.850;9.002;2022-08-05T05:59:01;6.30;;;4.13;;
67965;SDS011;54749;47.850;9.002;2022-08-05T06:01:32;11.85;;;3.63;;
67965;SDS011;54749;47.850;9.002;2022-08-05T06:04:07;5.07;;;2.67;;
67965;SDS011;54749;47.850;9.002;2022-08-05T06:06:39;4.82;;;2.80;;
67965;SDS011;54749;47.850;9.002;2022-08-05T06:09:08;5.17;;;2.70;;
67965;SDS011;54749;47.850;9.002;2022-08-05T06:11:51;5.25;;;2.50;;
67965;SDS011;54749;47.850;9.002;2022-08-05T06:14:30;4.57;;;2.45;;
67965;SDS011;54749;47.850;9.002;2022-08-05T06:17:00;5.53;;;2.47;;
67965;SDS011;54749;47.850;9.002;2022-08-05T06:19:47;3.80;;;2.25;;
67965;SDS011;54749;47.850;9.002;2022-08-05T06:22:26;7.50;;;2.33;;
67965;SDS011;54749;47.850;9.002;2022-08-05T06:25:00;4.75;;;2.47;;
67965;SDS011;54749;47.850;9.002;2022-08-05T06:27:47;4.43;;;2.50;;
67965;SDS011;54749;47.850;9.002;2022-08-05T06:30:34;4.60;;;2.15;;
67965;SDS011;54749;47.850;9.002;2022-08-05T06:33:01;7.55;;;2.97;;
67965;SDS011;54749;47.850;9.002;2022-08-05T06:35:28;4.50;;;2.30;;
67965;SDS011;54749;47.850;9.002;2022-08-05T06:38:15;4.60;;;2.30;;
67965;SDS011;54749;47.850;9.002;2022-08-05T06:40:41;6.03;;;2.67;;
67965;SDS011;54749;47.850;9.002;2022-08-05T06:43:10;6.50;;;2.50;;
67965;SDS011;54749;47.850;9.002;2022-08-05T06:45:58;7.38;;;2.42;;
67965;SDS011;54749;47.850;9.002;2022-08-05T06:48:31;7.07;;;2.40;;
67965;SDS011;54749;47.850;9.002;2022-08-05T06:51:20;8.35;;;2.70;;
67965;SDS011;54749;47.850;9.002;2022-08-05T06:53:56;5.35;;;2.83;;
67965;SDS011;54749;47.850;9.002;2022-08-05T06:56:28;6.80;;;3.25;;
67965;SDS011;54749;47.850;9.002;2022-08-05T06:59:01;6.28;;;2.90;;
67965;SDS011;54749;47.850;9.002;2022-08-05T07:01:34;6.60;;;2.97;;
67965;SDS011;54749;47.850;9.002;2022-08-05T07:04:02;9.93;;;3.15;;
67965;SDS011;54749;47.850;9.002;2022-08-05T07:06:29;6.07;;;2.50;;
67965;SDS011;54749;47.850;9.002;2022-08-05T07:08:58;4.25;;;2.60;;
67965;SDS011;54749;47.850;9.002;2022-08-05T07:11:30;6.30;;;2.83;;
67965;SDS011;54749;47.850;9.002;2022-08-05T07:14:03;5.83;;;3.10;;
67965;SDS011;54749;47.850;9.002;2022-08-05T07:16:56;5.05;;;2.90;;
67965;SDS011;54749;47.850;9.002;2022-08-05T07:19:47;6.07;;;3.05;;
67965;SDS011;54749;47.850;9.002;2022-08-05T07:22:35;6.00;;;2.60;;
67965;SDS011;54749;47.850;9.002;2022-08-05T07:25:03;7.45;;;3.10;;
67965;SDS011;54749;47.850;9.002;2022-08-05T07:27:50;8.30;;;2.70;;
67965;SDS011;54749;47.850;9.002;2022-08-05T07:30:37;4.65;;;2.28;;
67965;SDS011;54749;47.850;9.002;2022-08-05T07:33:06;6.60;;;2.60;;
67965;SDS011;54749;47.850;9.002;2022-08-05T07:35:43;7.00;;;3.03;;
67965;SDS011;54749;47.850;9.002;2022-08-05T07:38:31;5.93;;;3.00;;
67965;SDS011;54749;47.850;9.002;2022-08-05T07:41:17;8.23;;;2.60;;
67965;SDS011;54749;47.850;9.002;2022-08-05T07:44:06;6.00;;;2.65;;
67965;SDS011;54749;47.850;9.002;2022-08-05T07:46:45;9.10;;;3.10;;
67965;SDS011;54749;47.850;9.002;2022-08-05T07:49:15;6.30;;;2.70;;
67965;SDS011;54749;47.850;9.002;2022-08-05T07:51:43;4.90;;;2.30;;
67965;SDS011;54749;47.850;9.002;2022-08-05T07:54:23;5.70;;;2.40;;
67965;SDS011;54749;47.850;9.002;2022-08-05T07:56:59;6.75;;;2.25;;
67965;SDS011;54749;47.850;9.002;2022-08-05T07:59:47;5.65;;;2.47;;
67965;SDS011;54749;47.850;9.002;2022-08-05T08:02:15;7.65;;;2.60;;
67965;SDS011;54749;47.850;9.002;2022-08-05T08:04:44;5.25;;;2.50;;
67965;SDS011;54749;47.850;9.002;2022-08-05T08:07:13;5.33;;;2.40;;
67965;SDS011;54749;47.850;9.002;2022-08-05T08:09:48;7.82;;;2.55;;
67965;SDS011;54749;47.850;9.002;2022-08-05T08:12:18;6.13;;;2.30;;
67965;SDS011;54749;47.850;9.002;2022-08-05T08:15:08;5.55;;;2.42;;
67965;SDS011;54749;47.850;9.002;2022-08-05T08:17:42;5.07;;;2.45;;
67965;SDS011;54749;47.850;9.002;2022-08-05T08:20:19;5.30;;;2.30;;
67965;SDS011;54749;47.850;9.002;2022-08-05T08:23:09;4.93;;;2.47;;
67965;SDS011;54749;47.850;9.002;2022-08-05T08:25:56;7.72;;;2.70;;
67965;SDS011;54749;47.850;9.002;2022-08-05T08:28:27;3.75;;;2.00;;
67965;SDS011;54749;47.850;9.002;2022-08-05T08:31:14;4.97;;;2.45;;
67965;SDS011;54749;47.850;9.002;2022-08-05T08:33:43;7.23;;;2.80;;
67965;SDS011;54749;47.850;9.002;2022-08-05T08:36:16;5.93;;;2.55;;
67965;SDS011;54749;47.850;9.002;2022-08-05T08:39:05;4.85;;;2.38;;
67965;SDS011;54749;47.850;9.002;2022-08-05T08:41:41;6.35;;;2.80;;
67965;SDS011;54749;47.850;9.002;2022-08-05T08:44:27;8.02;;;2.80;;
67965;SDS011;54749;47.850;9.002;2022-08-05T08:47:16;4.93;;;2.70;;
67965;SDS011;54749;47.850;9.002;2022-08-05T08:50:05;5.60;;;2.35;;
67965;SDS011;54749;47.850;9.002;2022-08-05T08:52:53;5.38;;;2.50;;
67965;SDS011;54749;47.850;9.002;2022-08-05T08:55:27;6.32;;;2.90;;
67965;SDS011;54749;47.850;9.002;2022-08-05T08:58:14;8.10;;;2.67;;
67965;SDS011;54749;47.850;9.002;2022-08-05T09:00:42;5.07;;;2.33;;
67965;SDS011;54749;47.850;9.002;2022-08-05T09:03:10;7.47;;;2.80;;
67965;SDS011;54749;47.850;9.002;2022-08-05T09:05:41;8.18;;;2.50;;
67965;SDS011;54749;47.850;9.002;2022-08-05T09:08:28;6.00;;;2.70;;
67965;SDS011;54749;47.850;9.002;2022-08-05T09:10:56;4.82;;;2.65;;
67965;SDS011;54749;47.850;9.002;2022-08-05T09:13:24;6.60;;;2.70;;
67965;SDS011;54749;47.850;9.002;2022-08-05T09:15:58;7.30;;;2.70;;
67965;SDS011;54749;47.850;9.002;2022-08-05T09:18:26;5.93;;;2.83;;
67965;SDS011;54749;47.850;9.002;2022-08-05T09:20:55;5.50;;;2.60;;
67965;SDS011;54749;47.850;9.002;2022-08-05T09:23:26;5.63;;;2.75;;
67965;SDS011;54749;47.850;9.002;2022-08-05T09:26:13;5.73;;;2.40;;
67965;SDS011;54749;47.850;9.002;2022-08-05T09:28:47;6.43;;;2.85;;
67965;SDS011;54749;47.850;9.002;2022-08-05T09:31:14;6.13;;;2.78;;
67965;SDS011;54749;47.850;9.002;2022-08-05T09:34:03;6.50;;;2.53;;
67965;SDS011;54749;47.850;9.002;2022-08-05T09:36:45;7.38;;;2.40;;
67965;SDS011;54749;47.850;9.002;2022-08-05T09:39:24;7.70;;;2.90;;
67965;SDS011;54749;47.850;9.002;2022-08-05T09:42:14;4.40;;;2.53;;
67965;SDS011;54749;47.850;9.002;2022-08-05T09:44:53;5.70;;;2.70;;
67965;SDS011;54749;47.850;9.002;2022-08-05T09:47:24;4.10;;;2.35;;
67965;SDS011;54749;47.850;9.002;2022-08-05T09:50:12;4.10;;;2.30;;
67965;SDS011;54749;47.850;9.002;2022-08-05T09:52:59;4.53;;;2.00;;
67965;SDS011;54749;47.850;9.002;2022-08-05T09:55:27;4.63;;;2.30;;
67965;SDS011;54749;47.850;9.002;2022-08-05T09:58:21;6.00;;;2.22;;
67965;SDS011;54749;47.850;9.002;2022-08-05T10:03:20;8.32;;;3.30;;
67965;SDS011;54749;47.850;9.002;2022-08-05T10:06:09;6.27;;;2.43;;
67965;SDS011;54749;47.850;9.002;2022-08-05T10:08:41;5.85;;;2.35;;
67965;SDS011;54749;47.850;9.002;2022-08-05T10:11:16;4.72;;;2.75;;
67965;SDS011;54749;47.850;9.002;2022-08-05T10:13:43;3.75;;;2.40;;
67965;SDS011;54749;47.850;9.002;2022-08-05T10:16:27;6.65;;;2.40;;
67965;SDS011;54749;47.850;9.002;2022-08-05T10:19:07;5.17;;;2.40;;
67965;SDS011;54749;47.850;9.002;2022-08-05T10:21:37;5.75;;;2.50;;
67965;SDS011;54749;47.850;9.002;2022-08-05T10:24:05;5.00;;;2.40;;
67965;SDS011;54749;47.850;9.002;2022-08-05T10:26:36;5.78;;;2.10;;
67965;SDS011;54749;47.850;9.002;2022-08-05T10:29:17;5.55;;;2.40;;
67965;SDS011;54749;47.850;9.002;2022-08-05T10:31:50;4.23;;;2.30;;
67965;SDS011;54749;47.850;9.002;2022-08-05T10:34:36;4.10;;;2.05;;
67965;SDS011;54749;47.850;9.002;2022-08-05T10:37:06;5.38;;;2.15;;
67965;SDS011;54749;47.850;9.002;2022-08-05T10:39:34;5.63;;;2.42;;
67965;SDS011;54749;47.850;9.002;2022-08-05T10:42:23;4.32;;;2.30;;
67965;SDS011;54749;47.850;9.002;2022-08-05T10:44:59;4.87;;;2.50;;
67965;SDS011;54749;47.850;9.002;2022-08-05T10:47:41;5.60;;;2.53;;
67965;SDS011;54749;47.850;9.002;2022-08-05T10:50:30;6.95;;;2.42;;
67965;SDS011;54749;47.850;9.002;2022-08-05T10:53:02;6.63;;;2.70;;
67965;SDS011;54749;47.850;9.002;2022-08-05T10:55:29;6.40;;;2.85;;
67965;SDS011;54749;47.850;9.002;2022-08-05T10:58:17;6.30;;;2.40;;
67965;SDS011;54749;47.850;9.002;2022-08-05T11:00:46;6.10;;;2.90;;
67965;SDS011;54749;47.850;9.002;2022-08-05T11:03:21;7.07;;;3.00;;
67965;SDS011;54749;47.850;9.002;2022-08-05T11:06:02;7.50;;;2.90;;
67965;SDS011;54749;47.850;9.002;2022-08-05T11:08:30;6.40;;;3.20;;
67965;SDS011;54749;47.850;9.002;2022-08-05T11:17:30;5.78;;;2.92;;
67965;SDS011;54749;47.850;9.002;2022-08-05T11:28:57;6.65;;;3.30;;
67965;SDS011;54749;47.850;9.002;2022-08-05T11:31:40;8.02;;;3.10;;
67965;SDS011;54749;47.850;9.002;2022-08-05T11:34:39;6.90;;;3.47;;
67965;SDS011;54749;47.850;9.002;2022-08-05T11:43:28;6.18;;;2.97;;
67965;SDS011;54749;47.850;9.002;2022-08-05T11:46:16;7.55;;;3.30;;
67965;SDS011;54749;47.850;9.002;2022-08-05T11:48:59;6.32;;;3.17;;
67965;SDS011;54749;47.850;9.002;2022-08-05T11:51:27;6.07;;;3.25;;
67965;SDS011;54749;47.850;9.002;2022-08-05T11:57:00;6.00;;;2.80;;
67965;SDS011;54749;47.850;9.002;2022-08-05T11:59:49;6.65;;;2.70;;
67965;SDS011;54749;47.850;9.002;2022-08-05T12:02:17;5.72;;;3.20;;
67965;SDS011;54749;47.850;9.002;2022-08-05T12:05:01;8.07;;;2.92;;
67965;SDS011;54749;47.850;9.002;2022-08-05T12:07:33;5.37;;;2.77;;
67965;SDS011;54749;47.850;9.002;2022-08-05T12:10:21;5.55;;;2.80;;
67965;SDS011;54749;47.850;9.002;2022-08-05T12:13:12;6.03;;;3.10;;
67965;SDS011;54749;47.850;9.002;2022-08-05T12:15:44;6.68;;;2.70;;
67965;SDS011;54749;47.850;9.002;2022-08-05T12:18:16;6.07;;;2.90;;
67965;SDS011;54749;47.850;9.002;2022-08-05T12:20:46;6.67;;;2.90;;
67965;SDS011;54749;47.850;9.002;2022-08-05T12:23:13;5.70;;;2.88;;
67965;SDS011;54749;47.850;9.002;2022-08-05T12:25:49;6.18;;;2.60;;
67965;SDS011;54749;47.850;9.002;2022-08-05T12:28:29;6.45;;;3.25;;
67965;SDS011;54749;47.850;9.002;2022-08-05T12:31:02;7.13;;;3.10;;
67965;SDS011;54749;47.850;9.002;2022-08-05T12:33:32;7.77;;;2.70;;
67965;SDS011;54749;47.850;9.002;2022-08-05T12:36:02;5.70;;;2.70;;
67965;SDS011;54749;47.850;9.002;2022-08-05T12:38:35;7.38;;;3.08;;
67965;SDS011;54749;47.850;9.002;2022-08-05T12:41:06;7.22;;;3.40;;
67965;SDS011;54749;47.850;9.002;2022-08-05T12:43:53;8.00;;;3.13;;
67965;SDS011;54749;47.850;9.002;2022-08-05T12:46:22;6.10;;;3.20;;
67965;SDS011;54749;47.850;9.002;2022-08-05T12:48:57;4.75;;;2.97;;
67965;SDS011;54749;47.850;9.002;2022-08-05T12:54:30;9.70;;;2.97;;
67965;SDS011;54749;47.850;9.002;2022-08-05T12:57:02;6.10;;;2.90;;
67965;SDS011;54749;47.850;9.002;2022-08-05T13:02:29;6.85;;;3.53;;
67965;SDS011;54749;47.850;9.002;2022-08-05T13:04:56;12.63;;;3.40;;
67965;SDS011;54749;47.850;9.002;2022-08-05T13:07:24;5.43;;;2.70;;
67965;SDS011;54749;47.850;9.002;2022-08-05T13:10:13;5.90;;;2.70;;
67965;SDS011;54749;47.850;9.002;2022-08-05T13:12:46;5.00;;;2.70;;
67965;SDS011;54749;47.850;9.002;2022-08-05T13:15:27;6.10;;;2.80;;
67965;SDS011;54749;47.850;9.002;2022-08-05T13:18:19;4.40;;;2.80;;
67965;SDS011;54749;47.850;9.002;2022-08-05T13:20:46;4.85;;;3.08;;
67965;SDS011;54749;47.850;9.002;2022-08-05T13:23:15;7.38;;;3.38;;
67965;SDS011;54749;47.850;9.002;2022-08-05T13:25:49;6.93;;;2.80;;
67965;SDS011;54749;47.850;9.002;2022-08-05T13:28:25;8.13;;;3.45;;
67965;SDS011;54749;47.850;9.002;2022-08-05T13:30:54;5.50;;;3.05;;
67965;SDS011;54749;47.850;9.002;2022-08-05T13:33:22;5.40;;;3.30;;
67965;SDS011;54749;47.850;9.002;2022-08-05T13:36:10;6.05;;;3.20;;
67965;SDS011;54749;47.850;9.002;2022-08-05T13:38:40;6.50;;;2.80;;
67965;SDS011;54749;47.850;9.002;2022-08-05T13:41:11;7.57;;;3.20;;
67965;SDS011;54749;47.850;9.002;2022-08-05T13:43:38;5.35;;;3.15;;
67965;SDS011;54749;47.850;9.002;2022-08-05T13:46:20;5.93;;;3.00;;
67965;SDS011;54749;47.850;9.002;2022-08-05T13:49:08;5.47;;;2.60;;
67965;SDS011;54749;47.850;9.002;2022-08-05T13:51:36;6.90;;;3.60;;
67965;SDS011;54749;47.850;9.002;2022-08-05T13:54:10;7.43;;;3.08;;
67965;SDS011;54749;47.850;9.002;2022-08-05T13:56:42;5.10;;;2.97;;
67965;SDS011;54749;47.850;9.002;2022-08-05T13:59:23;4.78;;;2.70;;
67965;SDS011;54749;47.850;9.002;2022-08-05T14:01:54;5.60;;;3.15;;
67965;SDS011;54749;47.850;9.002;2022-08-05T14:04:28;7.00;;;3.03;;
67965;SDS011;54749;47.850;9.002;2022-08-05T14:07:19;5.57;;;3.10;;
67965;SDS011;54749;47.850;9.002;2022-08-05T14:10:15;7.18;;;2.88;;
67965;SDS011;54749;47.850;9.002;2022-08-05T14:12:45;7.00;;;3.60;;
67965;SDS011;54749;47.850;9.002;2022-08-05T14:15:15;5.85;;;3.30;;
67965;SDS011;54749;47.850;9.002;2022-08-05T14:18:02;6.47;;;3.50;;
67965;SDS011;54749;47.850;9.002;2022-08-05T14:20:30;5.95;;;3.17;;
67965;SDS011;54749;47.850;9.002;2022-08-05T14:22:58;5.72;;;2.90;;
67965;SDS011;54749;47.850;9.002;2022-08-05T14:25:25;5.35;;;2.97;;
67965;SDS011;54749;47.850;9.002;2022-08-05T14:27:54;4.55;;;2.88;;
67965;SDS011;54749;47.850;9.002;2022-08-05T14:30:23;7.30;;;3.13;;
67965;SDS011;54749;47.850;9.002;2022-08-05T14:32:54;7.35;;;3.45;;
67965;SDS011;54749;47.850;9.002;2022-08-05T14:35:22;5.15;;;3.20;;
67965;SDS011;54749;47.850;9.002;2022-08-05T14:38:09;6.35;;;3.17;;
67965;SDS011;54749;47.850;9.002;2022-08-05T14:40:57;4.95;;;3.00;;
67965;SDS011;54749;47.850;9.002;2022-08-05T14:43:24;5.77;;;3.27;;
67965;SDS011;54749;47.850;9.002;2022-08-05T14:46:11;6.47;;;3.13;;
67965;SDS011;54749;47.850;9.002;2022-08-05T14:48:38;7.22;;;3.50;;
67965;SDS011;54749;47.850;9.002;2022-08-05T14:51:05;6.97;;;3.40;;
67965;SDS011;54749;47.850;9.002;2022-08-05T14:53:34;6.53;;;3.45;;
67965;SDS011;54749;47.850;9.002;2022-08-05T14:56:10;5.07;;;2.93;;
67965;SDS011;54749;47.850;9.002;2022-08-05T14:58:38;6.72;;;3.00;;
67965;SDS011;54749;47.850;9.002;2022-08-05T15:01:19;5.45;;;3.35;;
67965;SDS011;54749;47.850;9.002;2022-08-05T15:04:06;5.90;;;3.10;;
67965;SDS011;54749;47.850;9.002;2022-08-05T15:06:37;4.47;;;2.80;;
67965;SDS011;54749;47.850;9.002;2022-08-05T15:09:06;8.50;;;3.27;;
67965;SDS011;54749;47.850;9.002;2022-08-05T15:11:33;4.78;;;3.00;;
67965;SDS011;54749;47.850;9.002;2022-08-05T15:14:19;5.20;;;2.88;;
67965;SDS011;54749;47.850;9.002;2022-08-05T15:17:03;5.53;;;3.25;;
67965;SDS011;54749;47.850;9.002;2022-08-05T15:19:35;6.07;;;3.00;;
67965;SDS011;54749;47.850;9.002;2022-08-05T15:22:04;6.00;;;3.40;;
67965;SDS011;54749;47.850;9.002;2022-08-05T15:24:34;5.07;;;3.20;;
67965;SDS011;54749;47.850;9.002;2022-08-05T15:27:06;6.00;;;3.15;;
67965;SDS011;54749;47.850;9.002;2022-08-05T15:29:34;6.65;;;3.38;;
67965;SDS011;54749;47.850;9.002;2022-08-05T15:32:08;5.30;;;3.13;;
67965;SDS011;54749;47.850;9.002;2022-08-05T15:34:35;6.20;;;3.13;;
67965;SDS011;54749;47.850;9.002;2022-08-05T15:37:02;6.20;;;3.22;;
67965;SDS011;54749;47.850;9.002;2022-08-05T15:39:40;5.70;;;3.40;;
67965;SDS011;54749;47.850;9.002;2022-08-05T15:42:28;6.57;;;3.00;;
67965;SDS011;54749;47.850;9.002;2022-08-05T15:45:15;6.60;;;3.10;;
67965;SDS011;54749;47.850;9.002;2022-08-05T15:47:44;6.37;;;3.17;;
67965;SDS011;54749;47.850;9.002;2022-08-05T15:50:12;6.20;;;2.97;;
67965;SDS011;54749;47.850;9.002;2022-08-05T15:52:41;6.18;;;3.15;;
67965;SDS011;54749;47.850;9.002;2022-08-05T15:55:20;7.03;;;3.17;;
67965;SDS011;54749;47.850;9.002;2022-08-05T15:58:08;7.10;;;3.17;;
67965;SDS011;54749;47.850;9.002;2022-08-05T16:00:42;6.53;;;3.33;;
67965;SDS011;54749;47.850;9.002;2022-08-05T16:03:29;6.40;;;2.80;;
67965;SDS011;54749;47.850;9.002;2022-08-05T16:05:59;4.82;;;2.60;;
67965;SDS011;54749;47.850;9.002;2022-08-05T16:08:28;5.32;;;3.42;;
67965;SDS011;54749;47.850;9.002;2022-08-05T16:10:57;8.55;;;3.08;;
67965;SDS011;54749;47.850;9.002;2022-08-05T16:13:25;5.67;;;2.90;;
67965;SDS011;54749;47.850;9.002;2022-08-05T16:16:01;5.38;;;3.13;;
67965;SDS011;54749;47.850;9.002;2022-08-05T16:18:30;8.10;;;3.83;;
67965;SDS011;54749;47.850;9.002;2022-08-05T16:20:59;15.90;;;3.70;;
67965;SDS011;54749;47.850;9.002;2022-08-05T16:23:30;6.95;;;3.65;;
67965;SDS011;54749;47.850;9.002;2022-08-05T16:26:17;7.97;;;3.23;;
67965;SDS011;54749;47.850;9.002;2022-08-05T16:28:54;7.40;;;3.28;;
67965;SDS011;54749;47.850;9.002;2022-08-05T16:31:21;8.68;;;3.50;;
67965;SDS011;54749;47.850;9.002;2022-08-05T16:33:48;7.10;;;3.50;;
67965;SDS011;54749;47.850;9.002;2022-08-05T16:36:19;9.05;;;3.10;;
67965;SDS011;54749;47.850;9.002;2022-08-05T16:38:49;7.10;;;3.20;;
67965;SDS011;54749;47.850;9.002;2022-08-05T16:41:21;6.57;;;2.60;;
67965;SDS011;54749;47.850;9.002;2022-08-05T16:44:08;8.35;;;3.25;;
67965;SDS011;54749;47.850;9.002;2022-08-05T16:46:37;5.93;;;3.25;;
67965;SDS011;54749;47.850;9.002;2022-08-05T16:49:07;6.85;;;3.45;;
67965;SDS011;54749;47.850;9.002;2022-08-05T16:51:35;7.17;;;3.37;;
67965;SDS011;54749;47.850;9.002;2022-08-05T16:54:16;6.13;;;3.70;;
67965;SDS011;54749;47.850;9.002;2022-08-05T16:56:52;5.80;;;3.50;;
67965;SDS011;54749;47.850;9.002;2022-08-05T16:59:19;6.35;;;3.50;;
67965;SDS011;54749;47.850;9.002;2022-08-05T17:01:47;6.18;;;3.67;;
67965;SDS011;54749;47.850;9.002;2022-08-05T17:04:25;8.20;;;4.13;;
67965;SDS011;54749;47.850;9.002;2022-08-05T17:06:56;12.82;;;3.85;;
67965;SDS011;54749;47.850;9.002;2022-08-05T17:09:36;8.20;;;4.00;;
67965;SDS011;54749;47.850;9.002;2022-08-05T17:12:23;12.85;;;4.03;;
67965;SDS011;54749;47.850;9.002;2022-08-05T17:15:10;11.68;;;4.20;;
67965;SDS011;54749;47.850;9.002;2022-08-05T17:17:44;9.40;;;4.23;;
67965;SDS011;54749;47.850;9.002;2022-08-05T17:20:22;10.48;;;4.88;;
67965;SDS011;54749;47.850;9.002;2022-08-05T17:22:52;6.47;;;3.85;;
67965;SDS011;54749;47.850;9.002;2022-08-05T17:25:21;7.97;;;3.83;;
67965;SDS011;54749;47.850;9.002;2022-08-05T17:28:06;7.38;;;3.63;;
67965;SDS011;54749;47.850;9.002;2022-08-05T17:30:38;6.70;;;3.40;;
67965;SDS011;54749;47.850;9.002;2022-08-05T17:33:08;9.75;;;4.10;;
67965;SDS011;54749;47.850;9.002;2022-08-05T17:35:35;14.50;;;5.18;;
67965;SDS011;54749;47.850;9.002;2022-08-05T17:38:22;17.33;;;7.38;;
67965;SDS011;54749;47.850;9.002;2022-08-05T17:40:48;12.68;;;5.97;;
67965;SDS011;54749;47.850;9.002;2022-08-05T17:43:16;11.80;;;6.00;;
67965;SDS011;54749;47.850;9.002;2022-08-05T17:45:43;13.18;;;6.25;;
67965;SDS011;54749;47.850;9.002;2022-08-05T17:48:10;10.25;;;5.38;;
67965;SDS011;54749;47.850;9.002;2022-08-05T17:50:37;11.93;;;6.30;;
67965;SDS011;54749;47.850;9.002;2022-08-05T17:53:04;12.40;;;6.00;;
67965;SDS011;54749;47.850;9.002;2022-08-05T17:55:34;9.80;;;5.73;;
67965;SDS011;54749;47.850;9.002;2022-08-05T17:58:06;8.90;;;5.50;;
67965;SDS011;54749;47.850;9.002;2022-08-05T18:00:38;10.88;;;6.18;;
67965;SDS011;54749;47.850;9.002;2022-08-05T18:03:13;9.93;;;6.07;;
67965;SDS011;54749;47.850;9.002;2022-08-05T18:06:01;8.63;;;5.38;;
67965;SDS011;54749;47.850;9.002;2022-08-05T18:08:37;10.80;;;6.17;;
67965;SDS011;54749;47.850;9.002;2022-08-05T18:11:06;9.45;;;5.78;;
67965;SDS011;54749;47.850;9.002;2022-08-05T18:13:36;9.30;;;5.50;;
67965;SDS011;54749;47.850;9.002;2022-08-05T18:16:09;9.65;;;5.35;;
67965;SDS011;54749;47.850;9.002;2022-08-05T18:18:40;7.82;;;4.40;;
67965;SDS011;54749;47.850;9.002;2022-08-05T18:21:13;6.70;;;4.23;;
67965;SDS011;54749;47.850;9.002;2022-08-05T18:23:51;6.45;;;3.70;;
67965;SDS011;54749;47.850;9.002;2022-08-05T18:26:22;7.45;;;3.65;;
67965;SDS011;54749;47.850;9.002;2022-08-05T18:28:57;8.60;;;4.57;;
67965;SDS011;54749;47.850;9.002;2022-08-05T18:31:25;8.77;;;4.95;;
67965;SDS011;54749;47.850;9.002;2022-08-05T18:34:01;6.77;;;4.40;;
67965;SDS011;54749;47.850;9.002;2022-08-05T18:36:32;9.18;;;4.88;;
67965;SDS011;54749;47.850;9.002;2022-08-05T18:39:01;11.55;;;6.55;;
67965;SDS011;54749;47.850;9.002;2022-08-05T18:41:31;8.75;;;5.22;;
67965;SDS011;54749;47.850;9.002;2022-08-05T18:44:19;13.02;;;9.55;;
67965;SDS011;54749;47.850;9.002;2022-08-05T18:47:00;12.93;;;7.40;;
67965;SDS011;54749;47.850;9.002;2022-08-05T18:49:30;13.25;;;8.82;;
67965;SDS011;54749;47.850;9.002;2022-08-05T18:52:26;8.68;;;4.88;;
67965;SDS011;54749;47.850;9.002;2022-08-05T18:55:18;7.50;;;4.70;;
67965;SDS011;54749;47.850;9.002;2022-08-05T18:57:47;13.25;;;6.68;;
67965;SDS011;54749;47.850;9.002;2022-08-05T19:00:19;8.43;;;5.83;;
67965;SDS011;54749;47.850;9.002;2022-08-05T19:02:55;9.85;;;5.65;;
67965;SDS011;54749;47.850;9.002;2022-08-05T19:05:33;11.57;;;6.50;;
67965;SDS011;54749;47.850;9.002;2022-08-05T19:08:20;13.07;;;8.43;;
67965;SDS011;54749;47.850;9.002;2022-08-05T19:10:57;17.17;;;8.57;;
67965;SDS011;54749;47.850;9.002;2022-08-05T19:13:29;10.87;;;5.80;;
67965;SDS011;54749;47.850;9.002;2022-08-05T19:16:02;9.15;;;4.93;;
67965;SDS011;54749;47.850;9.002;2022-08-05T19:18:50;9.57;;;5.63;;
67965;SDS011;54749;47.850;9.002;2022-08-05T19:21:18;7.80;;;4.70;;
67965;SDS011;54749;47.850;9.002;2022-08-05T19:23:45;6.70;;;3.80;;
67965;SDS011;54749;47.850;9.002;2022-08-05T19:26:32;7.77;;;3.10;;
67965;SDS011;54749;47.850;9.002;2022-08-05T19:28:59;9.60;;;4.65;;
67965;SDS011;54749;47.850;9.002;2022-08-05T19:31:32;6.35;;;3.92;;
67965;SDS011;54749;47.850;9.002;2022-08-05T19:34:10;6.75;;;3.90;;
67965;SDS011;54749;47.850;9.002;2022-08-05T19:36:44;9.63;;;5.18;;
67965;SDS011;54749;47.850;9.002;2022-08-05T19:39:12;9.63;;;5.30;;
67965;SDS011;54749;47.850;9.002;2022-08-05T19:41:42;14.98;;;6.30;;
67965;SDS011;54749;47.850;9.002;2022-08-05T19:44:30;7.88;;;4.60;;
67965;SDS011;54749;47.850;9.002;2022-08-05T19:46:57;6.50;;;3.90;;
67965;SDS011;54749;47.850;9.002;2022-08-05T19:49:24;8.45;;;5.07;;
67965;SDS011;54749;47.850;9.002;2022-08-05T19:51:51;9.67;;;5.70;;
67965;SDS011;54749;47.850;9.002;2022-08-05T19:54:32;11.50;;;4.57;;
67965;SDS011;54749;47.850;9.002;2022-08-05T19:57:01;7.10;;;3.92;;
67965;SDS011;54749;47.850;9.002;2022-08-05T19:59:38;5.47;;;3.58;;
67965;SDS011;54749;47.850;9.002;2022-08-05T20:02:26;8.43;;;3.60;;
67965;SDS011;54749;47.850;9.002;2022-08-05T20:04:57;9.73;;;5.60;;
67965;SDS011;54749;47.850;9.002;2022-08-05T20:07:26;10.77;;;5.13;;
67965;SDS011;54749;47.850;9.002;2022-08-05T20:10:14;22.40;;;7.13;;
67965;SDS011;54749;47.850;9.002;2022-08-05T20:12:45;14.80;;;7.30;;
67965;SDS011;54749;47.850;9.002;2022-08-05T20:15:18;16.92;;;7.68;;
67965;SDS011;54749;47.850;9.002;2022-08-05T20:18:06;13.97;;;5.83;;
67965;SDS011;54749;47.850;9.002;2022-08-05T20:20:54;12.05;;;5.63;;
67965;SDS011;54749;47.850;9.002;2022-08-05T20:23:23;9.07;;;5.50;;
67965;SDS011;54749;47.850;9.002;2022-08-05T20:26:11;11.40;;;4.93;;
67965;SDS011;54749;47.850;9.002;2022-08-05T20:28:42;8.38;;;3.63;;
67965;SDS011;54749;47.850;9.002;2022-08-05T20:31:10;7.03;;;3.40;;
67965;SDS011;54749;47.850;9.002;2022-08-05T20:33:38;5.97;;;3.10;;
67965;SDS011;54749;47.850;9.002;2022-08-05T20:36:08;7.22;;;3.63;;
67965;SDS011;54749;47.850;9.002;2022-08-05T20:38:36;9.32;;;6.00;;
67965;SDS011;54749;47.850;9.002;2022-08-05T20:41:24;10.77;;;5.35;;
67965;SDS011;54749;47.850;9.002;2022-08-05T20:44:10;9.63;;;5.50;;
67965;SDS011;54749;47.850;9.002;2022-08-05T20:46:54;11.25;;;5.75;;
67965;SDS011;54749;47.850;9.002;2022-08-05T20:49:23;9.77;;;5.88;;
67965;SDS011;54749;47.850;9.002;2022-08-05T20:51:51;16.35;;;8.93;;
67965;SDS011;54749;47.850;9.002;2022-08-05T20:54:20;14.30;;;7.43;;
67965;SDS011;54749;47.850;9.002;2022-08-05T20:56:50;9.73;;;5.93;;
67965;SDS011;54749;47.850;9.002;2022-08-05T20:59:18;10.07;;;5.80;;
67965;SDS011;54749;47.850;9.002;2022-08-05T21:01:52;8.98;;;4.82;;
67965;SDS011;54749;47.850;9.002;2022-08-05T21:04:24;7.60;;;5.13;;
67965;SDS011;54749;47.850;9.002;2022-08-05T21:06:52;8.95;;;5.18;;
67965;SDS011;54749;47.850;9.002;2022-08-05T21:09:21;9.33;;;5.37;;
67965;SDS011;54749;47.850;9.002;2022-08-05T21:11:48;9.57;;;6.13;;
67965;SDS011;54749;47.850;9.002;2022-08-05T21:14:37;15.30;;;8.35;;
67965;SDS011;54749;47.850;9.002;2022-08-05T21:17:04;17.83;;;7.88;;
67965;SDS011;54749;47.850;9.002;2022-08-05T21:19:34;19.08;;;9.20;;
67965;SDS011;54749;47.850;9.002;2022-08-05T21:22:14;14.47;;;7.73;;
67965;SDS011;54749;47.850;9.002;2022-08-05T21:24:44;11.25;;;6.70;;
67965;SDS011;54749;47.850;9.002;2022-08-05T21:27:17;14.93;;;8.75;;
67965;SDS011;54749;47.850;9.002;2022-08-05T21:29:50;10.68;;;6.75;;
67965;SDS011;54749;47.850;9.002;2022-08-05T21:32:16;10.80;;;6.32;;
67965;SDS011;54749;47.850;9.002;2022-08-05T21:34:46;10.57;;;6.30;;
67965;SDS011;54749;47.850;9.002;2022-08-05T21:37:32;11.07;;;7.40;;